Time;durP1;ratioP1;P1;durP2;ratioP2;P2;SDS_P1;SDS_P2;PMS_P1;PMS_P2;Temp;Humidity;BMP_temperature;BMP_pressure;BME280_temperature;BME280_humidity;BME280_pressure;Samples;Min_cycle;Max_cycle;Signal;HPM_P1;HPM_P2
2024/01/07 00:01:18;;;;;;;4.57;4.27;;;;;;;4.50;100.00;95901.41;5102738;28;20211;-58
2024/01/07 00:03:44;;;;;;;4.80;4.40;;;;;;;4.48;100.00;95900.69;5104293;28;20328;-59
2024/01/07 00:06:12;;;;;;;5.20;4.80;;;;;;;4.45;100.00;95893.09;5104766;28;20203;-58
2024/01/07 00:08:39;;;;;;;4.37;4.07;;;;;;;4.48;100.00;95895.47;5103566;28;20222;-58
2024/01/07 00:11:05;;;;;;;4.63;4.27;;;;;;;4.43;100.00;95900.22;5103508;28;20206;-59
2024/01/07 00:13:32;;;;;;;4.40;4.10;;;;;;;4.45;100.00;95893.94;5104026;27;20211;-59
2024/01/07 00:15:59;;;;;;;4.67;4.27;;;;;;;4.43;100.00;95902.84;5103571;28;20194;-58
2024/01/07 00:18:26;;;;;;;4.70;4.30;;;;;;;4.46;100.00;95892.16;5104466;27;21318;-58
2024/01/07 00:20:53;;;;;;;4.87;4.47;;;;;;;4.44;100.00;95896.66;5102652;28;20671;-58
2024/01/07 00:23:21;;;;;;;5.20;4.80;;;;;;;4.44;100.00;95891.44;5104205;27;20214;-58
2024/01/07 00:25:47;;;;;;;4.60;4.20;;;;;;;4.46;100.00;95892.97;5103731;28;20204;-58
2024/01/07 00:28:14;;;;;;;4.53;4.13;;;;;;;4.45;100.00;95898.34;5103429;28;20218;-58
2024/01/07 00:30:41;;;;;;;4.27;3.97;;;;;;;4.44;100.00;95896.66;5102290;28;20723;-59
2024/01/07 00:33:07;;;;;;;4.30;4.00;;;;;;;4.41;100.00;95902.97;5103350;28;20202;-59
2024/01/07 00:35:34;;;;;;;3.70;3.47;;;;;;;4.37;100.00;95891.09;5104185;28;20296;-59
2024/01/07 00:38:00;;;;;;;3.30;3.10;;;;;;;4.29;100.00;95892.66;5103740;28;20198;-59
2024/01/07 00:40:28;;;;;;;3.77;3.53;;;;;;;4.27;100.00;95895.41;5103138;28;20212;-59
2024/01/07 00:42:55;;;;;;;3.63;3.43;;;;;;;4.34;100.00;95896.59;5103676;28;20198;-59
2024/01/07 00:45:22;;;;;;;3.57;3.37;;;;;;;4.30;100.00;95891.72;5113141;28;20212;-58
2024/01/07 00:47:49;;;;;;;3.53;3.23;;;;;;;4.36;100.00;95889.44;5115206;28;20230;-59
2024/01/07 00:50:16;;;;;;;3.70;3.40;;;;;;;4.33;100.00;95894.91;5089398;28;20302;-57
2024/01/07 00:52:43;;;;;;;3.43;3.23;;;;;;;4.31;100.00;95891.59;5101075;28;20844;-58
2024/01/07 00:55:09;;;;;;;3.47;3.27;;;;;;;4.31;100.00;95891.59;5101087;27;20202;-59
2024/01/07 00:57:37;;;;;;;3.40;3.10;;;;;;;4.33;100.00;95891.47;5100886;28;20211;-58
2024/01/07 01:00:06;;;;;;;3.60;3.30;;;;;;;4.28;100.00;95891.84;5102100;28;20205;-57
2024/01/07 01:02:33;;;;;;;3.27;3.07;;;;;;;4.24;100.00;95895.66;5103641;28;20538;-60
2024/01/07 01:04:59;;;;;;;3.20;3.00;;;;;;;4.34;100.00;95895.75;5105718;28;20539;-70
2024/01/07 01:07:26;;;;;;;3.03;2.83;;;;;;;4.35;100.00;95898.25;5109872;27;20212;-61
2024/01/07 01:09:52;;;;;;;3.30;3.10;;;;;;;4.31;100.00;95901.22;5112025;28;20344;-59
2024/01/07 01:12:19;;;;;;;3.00;2.80;;;;;;;4.36;100.00;95899.06;5117142;28;20259;-62
2024/01/07 01:14:47;;;;;;;5.13;4.13;;;;;;;4.37;100.00;95905.97;5109345;28;20244;-59
2024/01/07 01:17:13;;;;;;;3.30;3.10;;;;;;;4.47;100.00;95906.88;5111035;28;20198;-59
2024/01/07 01:19:40;;;;;;;3.00;2.80;;;;;;;4.45;100.00;95909.63;5105408;28;20223;-59
2024/01/07 01:22:07;;;;;;;3.40;3.20;;;;;;;4.43;100.00;95911.53;5102425;28;20206;-60
2024/01/07 01:24:33;;;;;;;3.77;3.47;;;;;;;4.41;100.00;95910.84;5103088;28;20210;-59
2024/01/07 01:27:00;;;;;;;3.30;3.10;;;;;;;4.37;100.00;95905.97;5101031;28;20296;-61
2024/01/07 01:29:27;;;;;;;3.57;3.30;;;;;;;4.41;100.00;95910.00;5100443;28;20240;-59
2024/01/07 01:31:55;;;;;;;3.53;3.00;;;;;;;4.43;100.00;95910.69;5100607;28;20202;-58
2024/01/07 01:34:21;;;;;;;3.03;2.83;;;;;;;4.50;100.00;95917.94;5104028;28;20296;-60
2024/01/07 01:36:48;;;;;;;3.13;2.93;;;;;;;4.42;100.00;95914.28;5103830;28;20215;-60
2024/01/07 01:39:15;;;;;;;3.40;3.20;;;;;;;4.42;100.00;95915.13;5100890;28;20206;-59
2024/01/07 01:41:41;;;;;;;3.10;2.90;;;;;;;4.44;100.00;95917.59;5106323;27;20209;-58
2024/01/07 01:44:08;;;;;;;3.40;3.20;;;;;;;4.39;100.00;95911.94;5101639;28;20201;-57
2024/01/07 01:46:35;;;;;;;3.20;3.00;;;;;;;4.40;100.00;95917.03;5102089;28;20234;-57
2024/01/07 01:49:03;;;;;;;3.50;3.30;;;;;;;4.39;100.00;95915.34;5102151;28;20662;-59
2024/01/07 01:51:29;;;;;;;3.40;3.20;;;;;;;4.45;100.00;95924.50;5101589;28;20201;-59
2024/01/07 01:53:57;;;;;;;3.33;3.13;;;;;;;4.49;100.00;95923.31;5101374;28;20293;-58
2024/01/07 01:56:26;;;;;;;3.17;2.97;;;;;;;4.45;100.00;95916.66;5101876;28;20241;-58
2024/01/07 01:58:52;;;;;;;3.20;3.00;;;;;;;4.43;100.00;95916.78;5100766;28;20201;-58
2024/01/07 02:01:19;;;;;;;3.07;2.87;;;;;;;4.49;100.00;95915.47;5100024;28;20201;-58
2024/01/07 02:03:46;;;;;;;2.80;2.63;;;;;;;4.46;100.00;95915.72;5100922;28;20243;-58
2024/01/07 02:06:15;;;;;;;3.50;2.97;;;;;;;4.40;100.00;95916.19;5102075;28;20216;-59
2024/01/07 02:08:42;;;;;;;2.63;2.53;;;;;;;4.43;100.00;95915.94;5101917;28;21447;-59
2024/01/07 02:11:16;;;;;;;2.93;2.73;;;;;;;4.42;100.00;95922.16;5100703;28;20597;-59
2024/01/07 02:13:43;;;;;;;3.07;2.87;;;;;;;4.36;100.00;95925.22;5101041;28;20631;-58
2024/01/07 02:16:09;;;;;;;2.83;2.73;;;;;;;4.31;100.00;95923.00;5102532;28;20201;-58
2024/01/07 02:18:36;;;;;;;3.20;3.00;;;;;;;4.38;100.00;95918.09;5102191;28;20202;-58
2024/01/07 02:21:05;;;;;;;2.60;2.50;;;;;;;4.34;100.00;95922.75;5102112;27;20212;-58
2024/01/07 02:23:32;;;;;;;3.03;2.83;;;;;;;4.33;100.00;95925.47;5101310;28;20197;-58
2024/01/07 02:26:00;;;;;;;3.23;3.03;;;;;;;4.32;100.00;95929.06;5101345;28;20193;-56
2024/01/07 02:28:27;;;;;;;3.00;2.90;;;;;;;4.28;100.00;95930.28;5101556;28;20220;-57
2024/01/07 02:30:54;;;;;;;3.40;3.20;;;;;;;4.30;100.00;95929.19;5102083;28;20287;-58
2024/01/07 02:33:20;;;;;;;3.33;3.10;;;;;;;4.31;100.00;95933.47;5100855;28;20595;-58
2024/01/07 02:35:47;;;;;;;3.53;3.23;;;;;;;4.30;100.00;95933.59;5100744;28;20251;-58
2024/01/07 02:38:13;;;;;;;2.97;2.87;;;;;;;4.26;100.00;95926.94;5101224;28;20295;-58
2024/01/07 02:40:40;;;;;;;3.30;3.10;;;;;;;4.19;100.00;95923.13;5100257;28;20641;-59
2024/01/07 02:43:10;;;;;;;3.20;3.00;;;;;;;4.15;100.00;95922.53;5100166;28;20209;-58
2024/01/07 02:45:36;;;;;;;2.90;2.80;;;;;;;4.14;100.00;95920.91;5104427;27;20648;-58
2024/01/07 02:48:03;;;;;;;3.10;2.90;;;;;;;4.21;100.00;95918.63;5103709;28;20205;-58
2024/01/07 02:50:30;;;;;;;2.93;2.80;;;;;;;4.25;100.00;95914.81;5104987;28;20209;-58
2024/01/07 02:52:56;;;;;;;3.60;3.40;;;;;;;4.24;100.00;95921.00;5104146;28;20209;-58
2024/01/07 02:55:24;;;;;;;3.80;3.50;;;;;;;4.24;100.00;95926.22;5104956;28;20209;-58
2024/01/07 02:57:51;;;;;;;3.40;3.20;;;;;;;4.24;100.00;95924.44;5104376;28;20873;-58
2024/01/07 03:00:19;;;;;;;3.90;3.60;;;;;;;4.18;100.00;95918.88;5104727;28;20198;-57
2024/01/07 03:02:46;;;;;;;3.40;3.20;;;;;;;4.23;100.00;95919.31;5104732;28;20207;-58
2024/01/07 03:05:13;;;;;;;3.50;3.30;;;;;;;4.24;100.00;95921.00;5103263;28;20580;-57
2024/01/07 03:07:39;;;;;;;3.60;3.30;;;;;;;4.25;100.00;95913.00;5105307;28;20545;-58
2024/01/07 03:10:07;;;;;;;3.90;3.60;;;;;;;4.24;100.00;95926.22;5104496;28;20221;-58
2024/01/07 03:12:33;;;;;;;3.70;3.50;;;;;;;4.25;100.00;95923.47;5104776;28;20540;-58
2024/01/07 03:15:00;;;;;;;4.50;4.20;;;;;;;4.26;100.00;95925.16;5103744;28;20285;-59
2024/01/07 03:17:28;;;;;;;3.10;3.00;;;;;;;4.29;100.00;95924.06;5104312;28;20193;-58
2024/01/07 03:19:55;;;;;;;5.10;4.70;;;;;;;4.28;100.00;95927.66;5103785;28;20201;-58
2024/01/07 03:22:21;;;;;;;4.23;3.93;;;;;;;4.27;100.00;95931.22;5104814;27;20197;-58
2024/01/07 03:24:48;;;;;;;3.83;3.53;;;;;;;4.24;100.00;95921.84;5105178;28;20206;-59
2024/01/07 03:27:15;;;;;;;4.03;3.73;;;;;;;4.24;100.00;95926.22;5105251;27;20190;-58
2024/01/07 03:29:41;;;;;;;3.57;3.27;;;;;;;4.15;100.00;95926.94;5106328;28;20232;-57
2024/01/07 03:32:08;;;;;;;3.93;3.63;;;;;;;4.21;100.00;95926.47;5107442;27;20206;-58
2024/01/07 03:34:36;;;;;;;4.30;4.00;;;;;;;4.22;100.00;95930.72;5105669;28;20227;-58
2024/01/07 03:37:02;;;;;;;4.20;3.90;;;;;;;4.23;100.00;95930.63;5104525;28;20564;-57
2024/01/07 03:39:29;;;;;;;4.40;4.00;;;;;;;4.18;100.00;95934.56;5103486;28;20617;-58
2024/01/07 03:41:57;;;;;;;3.87;3.67;;;;;;;4.14;100.00;95930.53;5104986;28;20210;-57
2024/01/07 03:44:25;;;;;;;3.70;3.50;;;;;;;4.21;100.00;95931.72;5104328;28;20205;-58
2024/01/07 03:46:52;;;;;;;3.87;3.60;;;;;;;4.20;100.00;95928.25;5104770;28;21108;-58
2024/01/07 03:49:18;;;;;;;3.80;3.60;;;;;;;4.23;100.00;95929.78;5103716;27;20221;-59
2024/01/07 03:51:46;;;;;;;4.20;3.90;;;;;;;4.21;100.00;95936.94;5103675;28;20193;-57
2024/01/07 03:54:13;;;;;;;3.87;3.67;;;;;;;4.21;100.00;95937.78;5103681;28;20208;-59
2024/01/07 03:56:39;;;;;;;4.00;3.40;;;;;;;4.22;100.00;95938.59;5103873;28;20301;-59
2024/01/07 03:59:06;;;;;;;4.40;4.00;;;;;;;4.26;100.00;95934.78;5102452;28;20216;-57
2024/01/07 04:01:33;;;;;;;3.80;3.50;;;;;;;4.20;100.00;95930.03;5104760;28;20831;-58
2024/01/07 04:04:00;;;;;;;3.60;3.40;;;;;;;4.24;100.00;95934.06;5103240;28;20242;-58
2024/01/07 04:06:28;;;;;;;4.03;3.73;;;;;;;4.20;100.00;95930.88;5103117;28;20201;-57
2024/01/07 04:08:57;;;;;;;3.63;3.43;;;;;;;4.11;100.00;95938.63;5103177;28;20254;-58
2024/01/07 04:11:24;;;;;;;3.70;3.37;;;;;;;4.22;100.00;95935.97;5104455;27;20212;-58
2024/01/07 04:13:50;;;;;;;3.37;3.07;;;;;;;4.17;100.00;95938.97;5102800;28;20560;-56
2024/01/07 04:16:18;;;;;;;3.27;3.07;;;;;;;4.08;100.00;95941.47;5104263;27;20206;-57
2024/01/07 04:18:44;;;;;;;4.13;3.13;;;;;;;4.15;100.00;95937.41;5102389;28;20630;-57
2024/01/07 04:21:11;;;;;;;2.93;2.73;;;;;;;4.11;100.00;95941.25;5103666;28;20193;-58
2024/01/07 04:23:39;;;;;;;3.20;2.90;;;;;;;4.10;100.00;95944.81;5102318;28;20631;-60
2024/01/07 04:26:07;;;;;;;2.97;2.80;;;;;;;4.09;100.00;95948.38;5104066;28;20205;-57
2024/01/07 04:28:34;;;;;;;2.93;2.73;;;;;;;3.97;100.00;95945.75;5102401;28;20216;-56
2024/01/07 04:31:00;;;;;;;3.00;2.80;;;;;;;3.90;100.00;95947.19;5103652;28;20220;-58
2024/01/07 04:33:27;;;;;;;3.17;2.97;;;;;;;3.92;100.00;95953.16;5102765;28;20197;-58
2024/01/07 04:35:57;;;;;;;3.00;2.80;;;;;;;3.90;100.00;95948.97;5103209;28;20197;-57
2024/01/07 04:38:24;;;;;;;3.27;3.07;;;;;;;3.88;100.00;95950.88;5113047;28;20197;-57
2024/01/07 04:40:50;;;;;;;3.13;2.93;;;;;;;3.90;100.00;95948.97;5109281;27;20209;-58
2024/01/07 04:43:19;;;;;;;3.30;3.10;;;;;;;3.87;100.00;95952.66;5107825;28;20204;-58
2024/01/07 04:45:45;;;;;;;3.10;2.90;;;;;;;3.74;100.00;95959.78;5107986;28;20201;-58
2024/01/07 04:48:12;;;;;;;3.10;2.90;;;;;;;3.79;100.00;95957.63;5107326;28;20283;-59
2024/01/07 04:50:40;;;;;;;3.33;3.13;;;;;;;3.76;100.00;95957.03;5108857;28;20658;-58
2024/01/07 04:53:06;;;;;;;3.33;3.10;;;;;;;3.79;100.00;95965.47;5102631;28;20296;-58
2024/01/07 04:55:33;;;;;;;3.23;3.03;;;;;;;3.84;100.00;95960.75;5102099;28;20199;-58
2024/01/07 04:58:00;;;;;;;3.37;3.10;;;;;;;3.95;100.00;95958.13;5102607;28;20210;-58
2024/01/07 05:00:28;;;;;;;3.60;3.30;;;;;;;3.98;100.00;95960.50;5101346;28;20197;-58
2024/01/07 05:02:55;;;;;;;3.60;3.40;;;;;;;3.97;100.00;95953.59;5102410;28;20219;-57
2024/01/07 05:05:22;;;;;;;4.07;3.77;;;;;;;3.95;100.00;95965.97;5101195;28;20229;-58
2024/01/07 05:07:48;;;;;;;3.33;3.13;;;;;;;3.83;100.00;95964.31;5100696;28;20206;-58
2024/01/07 05:10:15;;;;;;;3.87;3.67;;;;;;;3.89;100.00;95968.25;5101377;28;20217;-59
2024/01/07 05:12:43;;;;;;;3.70;3.40;;;;;;;3.80;100.00;95968.94;5102497;28;20201;-58
2024/01/07 05:15:10;;;;;;;3.47;3.27;;;;;;;3.91;100.00;95969.78;5101761;28;20201;-58
2024/01/07 05:17:38;;;;;;;3.60;3.40;;;;;;;3.91;100.00;95966.31;5103068;28;20489;-58
2024/01/07 05:20:06;;;;;;;4.07;3.77;;;;;;;3.84;100.00;95967.75;5101818;28;20288;-58
2024/01/07 05:22:34;;;;;;;3.67;3.37;;;;;;;3.90;100.00;95965.50;5102021;28;20201;-58
2024/01/07 05:25:01;;;;;;;4.20;3.90;;;;;;;3.84;100.00;95971.19;5103033;28;20545;-56
2024/01/07 05:27:28;;;;;;;3.77;3.47;;;;;;;3.80;100.00;95968.94;5107880;28;20202;-57
2024/01/07 05:29:55;;;;;;;3.53;3.33;;;;;;;3.80;100.00;95969.78;5108519;28;20603;-58
2024/01/07 05:32:21;;;;;;;3.60;3.30;;;;;;;3.84;100.00;95972.97;5105793;28;20225;-59
2024/01/07 05:34:50;;;;;;;4.00;3.70;;;;;;;3.87;100.00;95970.13;5101883;28;20553;-58
2024/01/07 05:37:17;;;;;;;4.27;3.90;;;;;;;3.82;100.00;95977.50;5102597;28;20217;-58
2024/01/07 05:39:43;;;;;;;4.10;3.80;;;;;;;3.86;100.00;95974.53;5100897;28;20194;-58
2024/01/07 05:42:10;;;;;;;4.10;3.80;;;;;;;3.83;100.00;95974.75;5101029;28;20306;-58
2024/01/07 05:44:37;;;;;;;4.30;4.00;;;;;;;3.86;100.00;95982.38;5102850;28;20215;-58
2024/01/07 05:47:04;;;;;;;4.27;3.97;;;;;;;3.79;100.00;95983.78;5108166;28;20212;-58
2024/01/07 05:49:31;;;;;;;4.00;3.70;;;;;;;3.81;100.00;95984.53;5106909;28;20218;-56
2024/01/07 05:51:59;;;;;;;4.20;3.90;;;;;;;3.79;100.00;95994.25;5107991;28;20269;-58
2024/01/07 05:54:25;;;;;;;3.73;3.53;;;;;;;3.85;100.00;95988.56;5111473;28;20186;-58
2024/01/07 05:56:52;;;;;;;4.37;3.97;;;;;;;3.71;100.00;95994.03;5102111;28;20209;-58
2024/01/07 05:59:19;;;;;;;4.10;3.80;;;;;;;3.76;100.00;95994.50;5100467;28;20556;-56
2024/01/07 06:01:46;;;;;;;4.23;3.93;;;;;;;3.73;100.00;95993.88;5101090;28;20623;-58
2024/01/07 06:04:13;;;;;;;4.37;4.07;;;;;;;3.77;100.00;95990.94;5100585;28;20305;-57
2024/01/07 06:06:39;;;;;;;5.00;4.50;;;;;;;3.67;100.00;95995.19;5100589;28;20197;-57
2024/01/07 06:09:07;;;;;;;4.67;4.30;;;;;;;3.71;100.00;95990.56;5100063;28;20603;-58
2024/01/07 06:11:34;;;;;;;4.53;4.23;;;;;;;3.65;100.00;95996.28;5101220;28;20213;-58
2024/01/07 06:14:01;;;;;;;4.30;4.00;;;;;;;3.67;100.00;96000.44;5100828;28;20216;-58
2024/01/07 06:16:29;;;;;;;4.40;4.10;;;;;;;3.69;100.00;95995.91;5107332;28;20197;-63
2024/01/07 06:18:56;;;;;;;4.63;4.33;;;;;;;3.63;100.00;95999.00;5124248;28;20269;-57
2024/01/07 06:21:23;;;;;;;5.03;4.63;;;;;;;3.56;100.00;95996.97;5127624;28;20181;-57
2024/01/07 06:23:49;;;;;;;4.50;4.20;;;;;;;3.55;100.00;96006.56;5127157;27;20182;-58
2024/01/07 06:26:17;;;;;;;5.00;4.70;;;;;;;3.57;100.00;96009.94;5126764;28;20245;-58
2024/01/07 06:28:44;;;;;;;4.90;4.50;;;;;;;3.58;100.00;96003.72;5100912;28;20219;-57
2024/01/07 06:31:10;;;;;;;4.83;4.43;;;;;;;3.59;100.00;96013.25;5101128;27;20217;-55
2024/01/07 06:33:37;;;;;;;4.33;4.03;;;;;;;3.59;100.00;96013.25;5101133;28;20511;-58
2024/01/07 06:36:04;;;;;;;5.07;4.67;;;;;;;3.55;100.00;96022.25;5101039;28;20220;-58
2024/01/07 06:38:30;;;;;;;5.17;4.73;;;;;;;3.49;100.00;96018.34;5100127;28;20201;-58
2024/01/07 06:41:00;;;;;;;4.33;4.00;;;;;;;3.46;100.00;96022.97;5100190;28;20220;-58
2024/01/07 06:43:29;;;;;;;4.97;4.57;;;;;;;3.47;100.00;96029.88;5101561;28;20529;-58
2024/01/07 06:45:56;;;;;;;4.43;4.13;;;;;;;3.55;100.00;96021.44;5100277;28;20205;-57
2024/01/07 06:48:23;;;;;;;4.97;4.67;;;;;;;3.59;100.00;96031.53;5099717;28;20204;-58
2024/01/07 06:50:49;;;;;;;4.90;4.50;;;;;;;3.57;100.00;96033.47;5099962;28;20221;-58
2024/01/07 06:53:16;;;;;;;4.77;4.47;;;;;;;3.50;100.00;96027.03;5101279;28;20209;-58
2024/01/07 06:55:43;;;;;;;5.40;4.33;;;;;;;3.55;100.00;96026.66;5100748;28;20231;-58
2024/01/07 06:58:09;;;;;;;5.03;4.63;;;;;;;3.58;100.00;96032.47;5100362;28;20205;-58
2024/01/07 07:00:37;;;;;;;4.83;4.17;;;;;;;3.61;100.00;96036.66;5099188;28;20215;-57
2024/01/07 07:03:06;;;;;;;4.57;4.27;;;;;;;3.56;100.00;96029.16;5100029;28;20207;-57
2024/01/07 07:05:32;;;;;;;4.57;4.17;;;;;;;3.56;100.00;96031.78;5081343;28;20206;-56
2024/01/07 07:07:59;;;;;;;5.30;4.87;;;;;;;3.53;100.00;96037.25;5081273;28;20205;-58
2024/01/07 07:10:26;;;;;;;5.17;4.70;;;;;;;3.59;100.00;96041.16;5082089;28;20523;-58
2024/01/07 07:12:52;;;;;;;5.03;4.63;;;;;;;3.63;100.00;96048.66;5063584;28;20260;-58
2024/01/07 07:15:19;;;;;;;4.63;4.33;;;;;;;3.61;100.00;96042.75;5081406;28;20225;-58
2024/01/07 07:17:47;;;;;;;5.30;4.80;;;;;;;3.61;100.00;96047.97;5081539;28;20214;-58
2024/01/07 07:20:13;;;;;;;4.83;4.47;;;;;;;3.59;100.00;96049.84;5081663;28;20198;-58
2024/01/07 07:22:41;;;;;;;4.57;4.23;;;;;;;3.64;100.00;96042.50;5082131;28;20288;-58
2024/01/07 07:25:09;;;;;;;5.13;4.73;;;;;;;3.57;100.00;96050.91;5081371;28;20734;-59
2024/01/07 07:27:35;;;;;;;4.90;4.50;;;;;;;3.58;100.00;96048.16;5081755;28;20216;-58
2024/01/07 07:30:02;;;;;;;5.17;4.77;;;;;;;3.64;100.00;96052.97;5081770;28;20222;-58
2024/01/07 07:32:28;;;;;;;4.77;4.40;;;;;;;3.64;100.00;96052.13;5085546;28;20217;-58
2024/01/07 07:34:56;;;;;;;5.10;4.70;;;;;;;3.69;100.00;96050.81;5085217;28;20545;-58
2024/01/07 07:37:23;;;;;;;5.57;5.10;;;;;;;3.72;100.00;96052.38;5085977;28;20208;-57
2024/01/07 07:39:49;;;;;;;5.70;5.20;;;;;;;3.74;100.00;96053.09;5086121;28;20202;-62
2024/01/07 07:42:16;;;;;;;4.87;4.47;;;;;;;3.78;100.00;96050.13;5092239;28;20213;-59
2024/01/07 07:44:43;;;;;;;5.20;4.80;;;;;;;3.75;100.00;96060.84;5092991;28;20541;-57
2024/01/07 07:47:11;;;;;;;5.30;4.80;;;;;;;3.77;100.00;96069.38;5087577;28;20290;-57
2024/01/07 07:49:39;;;;;;;5.80;5.30;;;;;;;3.77;100.00;96064.16;5084542;28;20292;-58
2024/01/07 07:52:08;;;;;;;5.20;4.80;;;;;;;3.82;100.00;96066.44;5084758;28;20634;-56
2024/01/07 07:54:35;;;;;;;5.43;5.00;;;;;;;3.77;100.00;96069.38;5087398;28;20555;-58
2024/01/07 07:57:02;;;;;;;5.60;5.10;;;;;;;3.76;100.00;96078.16;5088173;28;20215;-56
2024/01/07 07:59:28;;;;;;;5.17;4.77;;;;;;;3.77;100.00;96069.38;5097597;28;20205;-58
2024/01/07 08:01:55;;;;;;;5.50;5.10;;;;;;;3.78;100.00;96073.66;5104403;28;20309;-57
2024/01/07 08:04:22;;;;;;;6.03;5.33;;;;;;;3.73;100.00;96072.34;5119218;28;20282;-56
2024/01/07 08:06:48;;;;;;;5.43;5.00;;;;;;;3.81;100.00;96081.28;5122629;28;20205;-57
2024/01/07 08:09:16;;;;;;;5.10;4.70;;;;;;;3.78;100.00;96073.66;5110815;28;20280;-58
2024/01/07 08:11:43;;;;;;;5.23;4.83;;;;;;;3.77;100.00;96079.84;5111865;28;20645;-57
2024/01/07 08:14:09;;;;;;;5.47;5.07;;;;;;;3.86;100.00;96079.13;5115424;28;20213;-57
2024/01/07 08:16:36;;;;;;;5.53;5.10;;;;;;;3.83;100.00;96084.59;5116688;28;20309;-57
2024/01/07 08:19:02;;;;;;;5.63;5.10;;;;;;;3.82;100.00;96080.34;5113404;28;20229;-57
2024/01/07 08:21:29;;;;;;;5.50;5.10;;;;;;;3.79;100.00;96083.16;5107554;28;20194;-58
2024/01/07 08:23:56;;;;;;;5.93;5.43;;;;;;;3.76;100.00;96088.63;5107837;28;20209;-58
2024/01/07 08:26:23;;;;;;;5.07;4.67;;;;;;;3.85;100.00;96082.72;5106658;28;20309;-58
2024/01/07 08:28:50;;;;;;;5.73;5.33;;;;;;;3.78;100.00;96089.38;5104838;28;20193;-58
2024/01/07 08:31:17;;;;;;;5.70;5.30;;;;;;;3.81;100.00;96096.97;5104432;28;20266;-58
2024/01/07 08:33:43;;;;;;;5.87;5.23;;;;;;;3.79;100.00;96101.47;5105184;28;20209;-58
2024/01/07 08:36:10;;;;;;;5.33;4.87;;;;;;;3.80;100.00;96097.91;5104098;28;20553;-58
2024/01/07 08:38:36;;;;;;;5.33;4.83;;;;;;;3.70;100.00;96094.31;5105377;28;20597;-58
2024/01/07 08:41:03;;;;;;;5.60;5.20;;;;;;;3.72;100.00;96094.22;5104111;28;20212;-56
2024/01/07 08:43:31;;;;;;;5.80;5.30;;;;;;;3.76;100.00;96100.84;5104621;28;20225;-58
2024/01/07 08:45:57;;;;;;;4.90;4.50;;;;;;;3.84;100.00;96109.81;5103773;28;20202;-58
2024/01/07 08:48:24;;;;;;;6.17;5.57;;;;;;;3.77;100.00;96100.75;5103639;28;20205;-57
2024/01/07 08:50:51;;;;;;;5.13;4.73;;;;;;;3.77;100.00;96098.16;5102785;28;20217;-58
2024/01/07 08:53:18;;;;;;;5.70;5.20;;;;;;;3.92;100.00;96099.63;5104469;28;20197;-58
2024/01/07 08:55:44;;;;;;;5.60;5.10;;;;;;;3.92;100.00;96099.63;5102917;28;20319;-58
2024/01/07 08:58:11;;;;;;;5.67;5.17;;;;;;;3.91;100.00;96111.03;5103227;28;20537;-58
2024/01/07 09:00:39;;;;;;;6.20;5.70;;;;;;;4.06;100.00;96111.66;5102773;28;20197;-57
2024/01/07 09:03:06;;;;;;;5.80;5.30;;;;;;;4.10;100.00;96114.88;5102978;27;20637;-58
2024/01/07 09:05:33;;;;;;;5.60;5.10;;;;;;;4.08;100.00;96114.13;5103118;28;20622;-56
2024/01/07 09:08:00;;;;;;;6.20;5.70;;;;;;;4.18;100.00;96122.97;5103309;28;20678;-58
2024/01/07 09:10:27;;;;;;;6.57;5.90;;;;;;;4.11;100.00;96127.81;5103217;28;20227;-58
2024/01/07 09:12:54;;;;;;;6.00;5.40;;;;;;;4.20;100.00;96124.50;5103547;28;20201;-56
2024/01/07 09:15:21;;;;;;;6.53;5.93;;;;;;;4.19;100.00;96124.63;5102968;28;20285;-56
2024/01/07 09:17:51;;;;;;;5.63;5.13;;;;;;;4.09;100.00;96126.25;5103705;28;20209;-57
2024/01/07 09:20:19;;;;;;;5.70;5.30;;;;;;;4.13;100.00;96127.72;5103104;28;20198;-58
2024/01/07 09:22:46;;;;;;;5.73;5.23;;;;;;;4.03;100.00;96126.75;5103048;28;20308;-58
2024/01/07 09:25:12;;;;;;;5.23;4.83;;;;;;;4.06;100.00;96131.75;5102568;28;20201;-57
2024/01/07 09:27:39;;;;;;;4.90;4.50;;;;;;;4.12;100.00;96128.66;5103622;28;20197;-58
2024/01/07 09:30:07;;;;;;;5.83;5.23;;;;;;;4.13;100.00;96127.72;5102522;28;20221;-57
2024/01/07 09:32:36;;;;;;;5.10;4.70;;;;;;;4.17;100.00;96129.16;5103124;28;20200;-58
2024/01/07 09:35:05;;;;;;;5.93;5.33;;;;;;;4.15;100.00;96142.34;5102918;28;20288;-57
2024/01/07 09:37:32;;;;;;;5.50;5.00;;;;;;;4.24;100.00;96139.03;5103078;28;20291;-57
2024/01/07 09:39:59;;;;;;;5.53;5.03;;;;;;;4.24;100.00;96143.44;5102789;28;20212;-57
2024/01/07 09:42:26;;;;;;;5.73;5.33;;;;;;;4.25;100.00;96145.09;5102884;28;20223;-57
2024/01/07 09:44:53;;;;;;;5.40;4.97;;;;;;;4.29;100.00;96138.66;5102459;28;20201;-58
2024/01/07 09:47:20;;;;;;;6.17;5.67;;;;;;;4.36;100.00;96139.84;5103150;28;20209;-57
2024/01/07 09:49:47;;;;;;;5.83;5.40;;;;;;;4.36;100.00;96138.06;5105383;28;20210;-56
2024/01/07 09:52:15;;;;;;;6.27;5.20;;;;;;;4.37;100.00;96138.91;5104641;28;20224;-56
2024/01/07 09:54:41;;;;;;;5.90;5.40;;;;;;;4.36;100.00;96140.69;5104431;28;20201;-57
2024/01/07 09:57:10;;;;;;;5.77;5.27;;;;;;;4.31;100.00;96140.22;5102388;28;20210;-58
2024/01/07 09:59:37;;;;;;;6.50;5.90;;;;;;;4.39;100.00;96144.88;5102070;28;20209;-57
2024/01/07 10:02:04;;;;;;;6.20;5.60;;;;;;;4.49;100.00;96140.59;5101793;28;20533;-58
2024/01/07 10:04:31;;;;;;;6.03;5.40;;;;;;;4.46;100.00;96143.47;5095411;28;20234;-58
2024/01/07 10:06:58;;;;;;;5.80;5.30;;;;;;;4.49;100.00;96140.59;5099921;28;20202;-58
2024/01/07 10:09:33;;;;;;;5.73;5.23;;;;;;;4.48;100.00;96133.69;5100222;28;20285;-57
2024/01/07 10:12:00;;;;;;;5.20;4.77;;;;;;;4.53;100.00;96134.19;5094794;28;20208;-56
2024/01/07 10:14:26;;;;;;;5.40;4.90;;;;;;;4.60;100.00;96132.75;5098873;28;20200;-57
2024/01/07 10:16:53;;;;;;;5.73;5.23;;;;;;;4.48;100.00;96139.78;5100527;28;20204;-58
2024/01/07 10:19:22;;;;;;;5.23;4.83;;;;;;;4.59;100.00;96136.31;5100306;28;20205;-58
2024/01/07 10:21:59;;;;;;;5.50;5.00;;;;;;;4.65;100.00;96137.63;5100667;28;20202;-58
2024/01/07 10:24:27;;;;;;;5.37;4.87;;;;;;;4.68;100.00;96134.75;5098330;28;20201;-58
2024/01/07 10:26:56;;;;;;;4.90;4.50;;;;;;;4.58;100.00;96129.41;5100796;28;20541;-58
2024/01/07 10:29:23;;;;;;;5.10;4.70;;;;;;;4.62;100.00;96136.06;5098489;28;20212;-58
2024/01/07 10:31:50;;;;;;;5.57;5.10;;;;;;;4.55;100.00;96129.66;5099682;28;20239;-58
2024/01/07 10:34:17;;;;;;;5.20;4.80;;;;;;;4.64;100.00;96134.16;5098659;28;20552;-58
2024/01/07 10:36:44;;;;;;;5.50;5.10;;;;;;;4.65;100.00;96133.22;5099574;28;20205;-57
2024/01/07 10:39:11;;;;;;;5.53;5.03;;;;;;;4.75;100.00;96131.53;5100463;28;20211;-58
2024/01/07 10:41:39;;;;;;;5.30;4.90;;;;;;;4.75;100.00;96136.78;5100844;28;20248;-58
2024/01/07 10:44:07;;;;;;;5.77;5.17;;;;;;;4.66;100.00;96129.66;5100643;28;20269;-58
2024/01/07 10:46:34;;;;;;;5.43;5.03;;;;;;;4.65;100.00;96130.59;5100601;28;20201;-58
2024/01/07 10:49:04;;;;;;;5.10;4.70;;;;;;;4.62;100.00;96130.84;5098188;28;21205;-57
2024/01/07 10:51:34;;;;;;;4.97;4.53;;;;;;;4.65;100.00;96130.59;5099125;28;20214;-58
2024/01/07 10:54:01;;;;;;;5.67;5.17;;;;;;;4.64;100.00;96128.91;5100101;28;20201;-57
2024/01/07 10:56:43;;;;;;;5.83;5.33;;;;;;;4.56;100.00;96128.72;5099786;28;20205;-57
2024/01/07 10:59:10;;;;;;;5.00;4.60;;;;;;;4.54;100.00;96125.34;5099869;28;20207;-58
2024/01/07 11:01:37;;;;;;;5.37;4.97;;;;;;;4.58;100.00;96129.41;5099558;28;20202;-58
2024/01/07 11:04:07;;;;;;;6.67;5.83;;;;;;;4.66;100.00;96129.66;5090962;28;20242;-58
2024/01/07 11:06:39;;;;;;;5.07;4.70;;;;;;;4.66;100.00;96126.19;5085736;28;20522;-58
2024/01/07 11:09:15;;;;;;;4.83;4.43;;;;;;;4.62;100.00;96128.22;5085154;28;20269;-56
2024/01/07 11:11:43;;;;;;;5.20;4.70;;;;;;;4.65;100.00;96124.53;5085867;28;20210;-57
2024/01/07 11:14:35;;;;;;;4.80;4.40;;;;;;;4.56;100.00;96120.84;5084940;28;20212;-58
2024/01/07 11:17:02;;;;;;;5.10;4.70;;;;;;;4.58;100.00;96124.16;5085666;28;20210;-58
2024/01/07 11:19:29;;;;;;;4.97;4.57;;;;;;;4.56;100.00;96123.47;5085673;28;20331;-57
2024/01/07 11:22:24;;;;;;;4.73;4.43;;;;;;;4.61;100.00;96121.31;5087060;28;20679;-56
2024/01/07 11:24:51;;;;;;;5.00;4.60;;;;;;;4.59;100.00;96120.59;5088129;28;20198;-57
2024/01/07 11:27:19;;;;;;;5.10;4.70;;;;;;;4.66;100.00;96120.97;5088410;28;20292;-57
2024/01/07 11:29:54;;;;;;;4.57;4.27;;;;;;;4.67;100.00;96113.00;5085536;28;20208;-58
2024/01/07 11:32:23;;;;;;;4.47;4.10;;;;;;;4.76;100.00;96111.41;5087408;28;20569;-57
2024/01/07 11:34:53;;;;;;;5.50;4.63;;;;;;;4.77;100.00;96108.69;5067198;28;20215;-57